Observation data for Gail on 01/18/2019      Previous  Date  Next       Current Mesonet Observations  Soil Data  Daily Summary Page  Observations in Plain Language
KGGS 180600Z 21010KT 07/01 A3003 RMK A01 T00710007  RH  065%=      5-min Rain = 0
KGGS 180605Z 21010KT 07/01 A3003 RMK A01 T00730008  RH  064%=      5-min Rain = 0
KGGS 180610Z 21010KT 08/01 A3003 RMK A01 T00760009  RH  063%=      5-min Rain = 0
KGGS 180615Z 21009KT 08/01 A3003 RMK A01 T00790010  RH  063%=      5-min Rain = 0
KGGS 180620Z 21010KT 08/01 A3003 RMK A01 T00790010  RH  063%=      5-min Rain = 0
KGGS 180625Z 21009KT 08/01 A3003 RMK A01 T00790010  RH  062%=      5-min Rain = 0
KGGS 180630Z 21009KT 08/01 A3003 RMK A01 T00790010  RH  062%=      5-min Rain = 0
KGGS 180635Z 21009KT 08/01 A3002 RMK A01 T00800010  RH  062%=      5-min Rain = 0
KGGS 180640Z 21010KT 08/01 A3002 RMK A01 T00800011  RH  063%=      5-min Rain = 0
KGGS 180645Z 21010KT 08/01 A3002 RMK A01 T00810011  RH  062%=      5-min Rain = 0
KGGS 180650Z 21010KT 08/01 A3002 RMK A01 T00820012  RH  062%=      5-min Rain = 0
KGGS 180655Z 21010KT 08/01 A3002 RMK A01 T00820012  RH  062%=      5-min Rain = 0
KGGS 180700Z 21009KT 08/01 A3002 RMK A01 T00810013  RH  063%=      5-min Rain = 0
KGGS 180705Z 21009KT 08/01 A3001 RMK A01 T00810014  RH  064%=      5-min Rain = 0
KGGS 180710Z 22009KT 08/01 A3001 RMK A01 T00830014  RH  063%=      5-min Rain = 0
KGGS 180715Z 21009KT 08/01 A3001 RMK A01 T00830014  RH  063%=      5-min Rain = 0
KGGS 180720Z 22009KT 08/01 A3001 RMK A01 T00820014  RH  063%=      5-min Rain = 0
KGGS 180725Z 21009KT 08/01 A3001 RMK A01 T00790013  RH  064%=      5-min Rain = 0
KGGS 180730Z 21009KT 08/01 A30 RMK A01 T00760012  RH  065%=      5-min Rain = 0
KGGS 180735Z 21009KT 08/01 A30 RMK A01 T00760012  RH  065%=      5-min Rain = 0
KGGS 180740Z 21008KT 08/01 A2999 RMK A01 T00780013  RH  064%=      5-min Rain = 0
KGGS 180745Z 22009KT 08/01 A2999 RMK A01 T00780014  RH  064%=      5-min Rain = 0
KGGS 180750Z 22009KT 08/02 A2999 RMK A01 T00800015  RH  064%=      5-min Rain = 0
KGGS 180755Z 21009KT 08/02 A2999 RMK A01 T00830016  RH  063%=      5-min Rain = 0
KGGS 180800Z 21009KT 09/02 A2999 RMK A01 T00880017  RH  062%=      5-min Rain = 0
KGGS 180805Z 21009KT 09/02 A2999 RMK A01 T00890018  RH  062%=      5-min Rain = 0
KGGS 180810Z 21008KT 09/02 A2999 RMK A01 T00850017  RH  064%=      5-min Rain = 0
KGGS 180815Z 21009KT 08/02 A2998 RMK A01 T00790015  RH  065%=      5-min Rain = 0
KGGS 180820Z 21009KT 08/02 A2998 RMK A01 T00780016  RH  066%=      5-min Rain = 0
KGGS 180825Z 20009KT 08/02 A2998 RMK A01 T00810017  RH  065%=      5-min Rain = 0
KGGS 180830Z 20009KT 08/02 A2998 RMK A01 T00810018  RH  065%=      5-min Rain = 0
KGGS 180835Z 20009KT 08/02 A2998 RMK A01 T00810018  RH  066%=      5-min Rain = 0
KGGS 180840Z 20009KT 08/02 A2998 RMK A01 T00790019  RH  067%=      5-min Rain = 0
KGGS 180845Z 20007KT 08/02 A2998 RMK A01 T00760018  RH  068%=      5-min Rain = 0
KGGS 180850Z 20007KT 08/02 A2997 RMK A01 T00770019  RH  068%=      5-min Rain = 0
KGGS 180855Z 20007KT 07/02 A2997 RMK A01 T00740017  RH  068%=      5-min Rain = 0
KGGS 180900Z 19007KT 07/02 A2997 RMK A01 T00680015  RH  070%=      5-min Rain = 0
KGGS 180905Z 20007KT 07/02 A2997 RMK A01 T00660016  RH  071%=      5-min Rain = 0
KGGS 180910Z 20008KT 07/02 A2997 RMK A01 T00670017  RH  071%=      5-min Rain = 0
KGGS 180915Z 20007KT 07/02 A2997 RMK A01 T00650016  RH  072%=      5-min Rain = 0
KGGS 180920Z 20008KT 07/02 A2997 RMK A01 T00650016  RH  072%=      5-min Rain = 0
KGGS 180925Z 19008KT 06/02 A2997 RMK A01 T00630016  RH  073%=      5-min Rain = 0
KGGS 180930Z 20008KT 06/02 A2997 RMK A01 T00640017  RH  073%=      5-min Rain = 0
KGGS 180935Z 20008KT 06/02 A2996 RMK A01 T00640018  RH  073%=      5-min Rain = 0
KGGS 180940Z 20008KT 07/02 A2996 RMK A01 T00680020  RH  073%=      5-min Rain = 0
KGGS 180945Z 20009KT 07/02 A2996 RMK A01 T00700021  RH  072%=      5-min Rain = 0
KGGS 180950Z 21009KT 07/02 A2996 RMK A01 T00700021  RH  072%=      5-min Rain = 0
KGGS 180955Z 21009KT 07/02 A2996 RMK A01 T00710022  RH  072%=      5-min Rain = 0
KGGS 181000Z 22008KT 07/02 A2995 RMK A01 T00740023  RH  071%=      5-min Rain = 0
KGGS 181005Z 21009KT 07/02 A2994 RMK A01 T00720021  RH  071%=      5-min Rain = 0
KGGS 181010Z 21009KT 07/02 A2994 RMK A01 T00700021  RH  072%=      5-min Rain = 0
KGGS 181015Z 21009KT 07/02 A2994 RMK A01 T00720022  RH  072%=      5-min Rain = 0
KGGS 181020Z 21009KT 07/02 A2994 RMK A01 T00740024  RH  072%=      5-min Rain = 0
KGGS 181025Z 21008KT 08/03 A2994 RMK A01 T00760025  RH  071%=      5-min Rain = 0
KGGS 181030Z 22008KT 07/02 A2993 RMK A01 T00740024  RH  072%=      5-min Rain = 0
KGGS 181035Z 21008KT 07/02 A2993 RMK A01 T00720023  RH  072%=      5-min Rain = 0
KGGS 181040Z 22007KT 07/02 A2992 RMK A01 T00700023  RH  073%=      5-min Rain = 0
KGGS 181045Z 22008KT 07/02 A2992 RMK A01 T00710024  RH  073%=      5-min Rain = 0
KGGS 181050Z 22008KT 08/03 A2992 RMK A01 T00760026  RH  072%=      5-min Rain = 0
KGGS 181055Z 23008KT 08/03 A2991 RMK A01 T00760026  RH  072%=      5-min Rain = 0
KGGS 181100Z 22009KT 08/03 A2991 RMK A01 T00750026  RH  072%=      5-min Rain = 0
KGGS 181105Z 22008KT 08/03 A2991 RMK A01 T00760026  RH  072%=      5-min Rain = 0
KGGS 181110Z 22008KT 07/02 A2991 RMK A01 T00730024  RH  073%=      5-min Rain = 0
KGGS 181115Z 22008KT 07/02 A2991 RMK A01 T00690022  RH  074%=      5-min Rain = 0
KGGS 181120Z 22008KT 07/02 A299 RMK A01 T00670023  RH  074%=      5-min Rain = 0
KGGS 181125Z 22007KT 07/02 A299 RMK A01 T00670024  RH  075%=      5-min Rain = 0
KGGS 181130Z 23007KT 07/02 A299 RMK A01 T00660023  RH  075%=      5-min Rain = 0
KGGS 181135Z 22007KT 07/02 A2989 RMK A01 T00650024  RH  076%=      5-min Rain = 0
KGGS 181140Z 21006KT 06/02 A2989 RMK A01 T00640023  RH  076%=      5-min Rain = 0
KGGS 181145Z 21007KT 06/02 A2988 RMK A01 T00590021  RH  077%=      5-min Rain = 0
KGGS 181150Z 21006KT 06/02 A2988 RMK A01 T00560019  RH  078%=      5-min Rain = 0
KGGS 181155Z 22006KT 06/02 A2988 RMK A01 T00560021  RH  079%=      5-min Rain = 0
KGGS 181200Z 22006KT 06/02 A2988 RMK A01 T00570022  RH  080%=      5-min Rain = 0
KGGS 181205Z 22006KT 06/02 A2988 RMK A01 T00580024  RH  080%=      5-min Rain = 0
KGGS 181210Z 22006KT 06/02 A2987 RMK A01 T00590024  RH  080%=      5-min Rain = 0
KGGS 181215Z 22006KT 06/02 A2987 RMK A01 T00590024  RH  080%=      5-min Rain = 0
KGGS 181220Z 22007KT 06/03 A2987 RMK A01 T00600026  RH  080%=      5-min Rain = 0
KGGS 181225Z 22008KT 06/03 A2987 RMK A01 T00620028  RH  080%=      5-min Rain = 0
KGGS 181230Z 21008KT 07/03 A2987 RMK A01 T00650030  RH  080%=      5-min Rain = 0
KGGS 181235Z 21008KT 07/03 A2986 RMK A01 T00650030  RH  080%=      5-min Rain = 0
KGGS 181240Z 22008KT 07/03 A2986 RMK A01 T00650031  RH  080%=      5-min Rain = 0
KGGS 181245Z 22009KT 07/03 A2986 RMK A01 T00670032  RH  080%=      5-min Rain = 0
KGGS 181250Z 22008KT 07/03 A2986 RMK A01 T00670032  RH  079%=      5-min Rain = 0
KGGS 181255Z 22008KT 07/03 A2986 RMK A01 T00650030  RH  080%=      5-min Rain = 0
KGGS 181300Z 22008KT 06/03 A2986 RMK A01 T00630029  RH  080%=      5-min Rain = 0
KGGS 181305Z 22006KT 06/03 A2986 RMK A01 T00590026  RH  081%=      5-min Rain = 0
KGGS 181310Z 23006KT 06/03 A2986 RMK A01 T00570026  RH  082%=      5-min Rain = 0
KGGS 181315Z 22007KT 06/03 A2986 RMK A01 T00570026  RH  082%=      5-min Rain = 0
KGGS 181320Z 21007KT 06/03 A2986 RMK A01 T00570027  RH  083%=      5-min Rain = 0
KGGS 181325Z 22007KT 06/03 A2986 RMK A01 T00570028  RH  083%=      5-min Rain = 0
KGGS 181330Z 22007KT 06/03 A2986 RMK A01 T00610031  RH  082%=      5-min Rain = 0
KGGS 181335Z 23007KT 06/03 A2986 RMK A01 T00590028  RH  082%=      5-min Rain = 0
KGGS 181340Z 24007KT 06/03 A2986 RMK A01 T00580027  RH  082%=      5-min Rain = 0
KGGS 181345Z 24007KT 06/03 A2986 RMK A01 T00590028  RH  082%=      5-min Rain = 0
KGGS 181350Z 24007KT 06/03 A2986 RMK A01 T00620030  RH  082%=      5-min Rain = 0
KGGS 181355Z 23007KT 07/03 A2986 RMK A01 T00650032  RH  081%=      5-min Rain = 0
KGGS 181400Z 23007KT 07/03 A2986 RMK A01 T00670033  RH  080%=      5-min Rain = 0
KGGS 181405Z 23007KT 07/03 A2986 RMK A01 T00700034  RH  079%=      5-min Rain = 0
KGGS 181410Z 23007KT 07/04 A2986 RMK A01 T00740036  RH  078%=      5-min Rain = 0
KGGS 181415Z 22006KT 08/04 A2986 RMK A01 T00800037  RH  076%=      5-min Rain = 0
KGGS 181420Z 24006KT 08/04 A2986 RMK A01 T00830038  RH  075%=      5-min Rain = 0
KGGS 181425Z 23006KT 09/04 A2986 RMK A01 T00890039  RH  072%=      5-min Rain = 0
KGGS 181430Z 24005KT 10/04 A2986 RMK A01 T00950039  RH  070%=      5-min Rain = 0
KGGS 181435Z 23006KT 10/04 A2986 RMK A01 T01000039  RH  067%=      5-min Rain = 0
KGGS 181440Z 22006KT 11/04 A2985 RMK A01 T01060039  RH  064%=      5-min Rain = 0
KGGS 181445Z 22007KT 11/04 A2985 RMK A01 T01090037  RH  062%=      5-min Rain = 0
KGGS 181450Z 23008KT 11/04 A2985 RMK A01 T01120036  RH  061%=      5-min Rain = 0
KGGS 181455Z 23009KT 11/04 A2984 RMK A01 T01130035  RH  060%=      5-min Rain = 0
KGGS 181500Z 23008KT 11/03 A2984 RMK A01 T01120034  RH  060%=      5-min Rain = 0
KGGS 181505Z 23009G15KT 11/03 A2984 RMK A01 T01140034  RH  059%=      5-min Rain = 0
KGGS 181510Z 23011KT 12/03 A2984 RMK A01 T01190032  RH  056%=      5-min Rain = 0
KGGS 181515Z 23011G16KT 12/03 A2984 RMK A01 T01220032  RH  055%=      5-min Rain = 0
KGGS 181520Z 23012KT 12/03 A2984 RMK A01 T01230031  RH  054%=      5-min Rain = 0
KGGS 181525Z 23012KT 13/03 A2984 RMK A01 T01250031  RH  054%=      5-min Rain = 0
KGGS 181530Z 22013KT 13/03 A2984 RMK A01 T01260030  RH  053%=      5-min Rain = 0
KGGS 181535Z 22013KT 13/03 A2984 RMK A01 T01260030  RH  053%=      5-min Rain = 0
KGGS 181540Z 22013G19KT 13/03 A2984 RMK A01 T01320032  RH  052%=      5-min Rain = 0
KGGS 181545Z 22014G19KT 14/03 A2984 RMK A01 T01390033  RH  049%=      5-min Rain = 0
KGGS 181550Z 22015KT 14/03 A2983 RMK A01 T01440032  RH  048%=      5-min Rain = 0
KGGS 181555Z 22014G19KT 15/03 A2984 RMK A01 T01490034  RH  047%=      5-min Rain = 0
KGGS 181600Z 22015G22KT 15/03 A2984 RMK A01 T01530033  RH  045%=      5-min Rain = 0
KGGS 181605Z 22015G21KT 16/03 A2984 RMK A01 T01580033  RH  044%=      5-min Rain = 0
KGGS 181610Z 22019G24KT 16/03 A2983 RMK A01 T01610030  RH  042%=      5-min Rain = 0
KGGS 181615Z 22018G25KT 17/03 A2983 RMK A01 T01650030  RH  041%=      5-min Rain = 0
KGGS 181620Z 23018G25KT 17/03 A2983 RMK A01 T01680030  RH  040%=      5-min Rain = 0
KGGS 181625Z 22019G25KT 17/03 A2983 RMK A01 T01680029  RH  040%=      5-min Rain = 0
KGGS 181630Z 23020G25KT 17/03 A2983 RMK A01 T01670028  RH  040%=      5-min Rain = 0
KGGS 181635Z 23020G25KT 17/03 A2982 RMK A01 T01680029  RH  040%=      5-min Rain = 0
KGGS 181640Z 23018KT 17/03 A2982 RMK A01 T01700029  RH  040%=      5-min Rain = 0
KGGS 181645Z 23016G22KT 17/03 A2982 RMK A01 T01740030  RH  039%=      5-min Rain = 0
KGGS 181650Z 23017G23KT 18/03 A2982 RMK A01 T01760028  RH  038%=      5-min Rain = 0
KGGS 181655Z 23014G20KT 18/03 A2982 RMK A01 T01820028  RH  036%=      5-min Rain = 0
KGGS 181700Z 23016G25KT 19/02 A2982 RMK A01 T01900022  RH  033%=      5-min Rain = 0
KGGS 181705Z 24017G23KT 20/02 A2982 RMK A01 T01960021  RH  032%=      5-min Rain = 0
KGGS 181710Z 24019G26KT 20/02 A2981 RMK A01 T01960019  RH  031%=      5-min Rain = 0
KGGS 181715Z 23018G26KT 20/02 A2981 RMK A01 T01970020  RH  031%=      5-min Rain = 0
KGGS 181720Z 23018G24KT 20/02 A2981 RMK A01 T02010023  RH  031%=      5-min Rain = 0
KGGS 181725Z 23018G27KT 21/02 A298 RMK A01 T02060020  RH  030%=      5-min Rain = 0
KGGS 181730Z 23019G26KT 21/02 A298 RMK A01 T02120017  RH  028%=      5-min Rain = 0
KGGS 181735Z 24020G30KT 22/01 A298 RMK A01 T02170012  RH  026%=      5-min Rain = 0
KGGS 181740Z 24023G35KT 22/01 A298 RMK A01 T02170005  RH  025%=      5-min Rain = 0
KGGS 181745Z 25024G29KT 22/01 A2979 RMK A01 T02150007  RH  025%=      5-min Rain = 0
KGGS 181750Z 25025G32KT 22/01 A2979 RMK A01 T02150008  RH  026%=      5-min Rain = 0
KGGS 181755Z 25022G30KT 22/01 A2978 RMK A01 T02170010  RH  026%=      5-min Rain = 0
KGGS 181800Z 24022G31KT 22/01 A2978 RMK A01 T02190010  RH  025%=      5-min Rain = 0
KGGS 181805Z 24021G30KT 22/01 A2977 RMK A01 T02180008  RH  025%=      5-min Rain = 0
KGGS 181810Z 24024G34KT 22/01 A2977 RMK A01 T02170008  RH  025%=      5-min Rain = 0
KGGS 181815Z 25022G29KT 22/01 A2977 RMK A01 T02150008  RH  026%=      5-min Rain = 0
KGGS 181820Z 26023G35KT 22/01 A2976 RMK A01 T02200007  RH  025%=      5-min Rain = 0
KGGS 181825Z 25021G30KT 22/01 A2976 RMK A01 T02240009  RH  024%=      5-min Rain = 0
KGGS 181830Z 26025G32KT 21/01 A2976 RMK A01 T02140005  RH  025%=      5-min Rain = 0
KGGS 181835Z 25023G31KT 21/01 A2976 RMK A01 T02100005  RH  026%=      5-min Rain = 0
KGGS 181840Z 24024G32KT 21/01 A2975 RMK A01 T02120008  RH  026%=      5-min Rain = 0
KGGS 181845Z 24024G32KT 21/01 A2975 RMK A01 T02080007  RH  027%=      5-min Rain = 0
KGGS 181850Z 24022G30KT 21/01 A2975 RMK A01 T02060008  RH  027%=      5-min Rain = 0
KGGS 181855Z 25022G32KT 21/01 A2975 RMK A01 T02080007  RH  027%=      5-min Rain = 0
KGGS 181900Z 25025G32KT 21/01 A2975 RMK A01 T02070005  RH  026%=      5-min Rain = 0
KGGS 181905Z 25025G33KT 21/01 A2974 RMK A01 T02070005  RH  026%=      5-min Rain = 0
KGGS 181910Z 25022G31KT 21/01 A2973 RMK A01 T02100005  RH  026%=      5-min Rain = 0
KGGS 181915Z 25023G28KT 21/00 A2973 RMK A01 T02080004  RH  026%=      5-min Rain = 0
KGGS 181920Z 26019G30KT 21/01 A2973 RMK A01 T02070005  RH  026%=      5-min Rain = 0
KGGS 181925Z 26020G29KT 21/01 A2973 RMK A01 T02070005  RH  026%=      5-min Rain = 0
KGGS 181930Z 26022G30KT 21/00 A2973 RMK A01 T02070004  RH  026%=      5-min Rain = 0
KGGS 181935Z 26018G26KT 21/01 A2973 RMK A01 T02070005  RH  026%=      5-min Rain = 0
KGGS 181940Z 25019G27KT 21/01 A2972 RMK A01 T02070005  RH  026%=      5-min Rain = 0
KGGS 181945Z 25023G31KT 21/00 A2972 RMK A01 T02060004  RH  026%=      5-min Rain = 0
KGGS 181950Z 25021G29KT 21/00 A2972 RMK A01 T02060004  RH  026%=      5-min Rain = 0
KGGS 181955Z 26021G28KT 21/00 A2971 RMK A01 T02070003  RH  026%=      5-min Rain = 0
KGGS 182000Z 26024G30KT 21/00 A297 RMK A01 T02090002  RH  025%=      5-min Rain = 0
KGGS 182005Z 25022G29KT 21/00 A297 RMK A01 T02120003  RH  025%=      5-min Rain = 0
KGGS 182010Z 25019G29KT 22/00 A2969 RMK A01 T02160004  RH  025%=      5-min Rain = 0
KGGS 182015Z 27021G30KT 22/00 A2969 RMK A01 T02160004  RH  025%=      5-min Rain = 0
KGGS 182020Z 26020G28KT 22/00 A2969 RMK A01 T02170004  RH  025%=      5-min Rain = 0
KGGS 182025Z 24021G30KT 21/00 A2968 RMK A01 T02130003  RH  025%=      5-min Rain = 0
KGGS 182030Z 26019G25KT 22/00 A2968 RMK A01 T02180004  RH  024%=      5-min Rain = 0
KGGS 182035Z 26019G29KT 22/01 A2968 RMK A01 T02220005  RH  024%=      5-min Rain = 0
KGGS 182040Z 25018G28KT 22/01 A2968 RMK A01 T02210005  RH  024%=      5-min Rain = 0
KGGS 182045Z 25019G26KT 22/00 A2968 RMK A01 T02200004  RH  024%=      5-min Rain = 0
KGGS 182050Z 25017G25KT 22/01 A2968 RMK A01 T02210005  RH  024%=      5-min Rain = 0
KGGS 182055Z 26020G29KT 22/00 A2968 RMK A01 T02240003  RH  023%=      5-min Rain = 0
KGGS 182100Z 26018G24KT 23/00 A2968 RMK A01 T02260000  RH  023%=      5-min Rain = 0
KGGS 182105Z 26018G24KT 23/00 A2967 RMK A01 T02280000  RH  022%=      5-min Rain = 0
KGGS 182110Z 26021G31KT 22/M00 A2967 RMK A01 T02161002  RH  024%=      5-min Rain = 0
KGGS 182115Z 26018G24KT 21/M00 A2967 RMK A01 T02121003  RH  024%=      5-min Rain = 0
KGGS 182120Z 27017G27KT 22/M00 A2968 RMK A01 T02231002  RH  023%=      5-min Rain = 0
KGGS 182125Z 27019G28KT 22/M00 A2968 RMK A01 T02221002  RH  023%=      5-min Rain = 0
KGGS 182130Z 27022G30KT 22/M00 A2968 RMK A01 T02171003  RH  023%=      5-min Rain = 0
KGGS 182135Z 28016G23KT 22/M00 A2968 RMK A01 T02191001  RH  023%=      5-min Rain = 0
KGGS 182140Z 28017G24KT 21/M00 A2968 RMK A01 T02141002  RH  024%=      5-min Rain = 0
KGGS 182145Z 28016G21KT 21/M00 A2968 RMK A01 T02101002  RH  025%=      5-min Rain = 0
KGGS 182150Z 29018G26KT 21/00 A2968 RMK A01 T02060003  RH  026%=      5-min Rain = 0
KGGS 182155Z 29016G21KT 21/00 A2969 RMK A01 T02060004  RH  026%=      5-min Rain = 0
KGGS 182200Z 29018G23KT 21/01 A2969 RMK A01 T02060006  RH  027%=      5-min Rain = 0
KGGS 182205Z 29016G24KT 20/01 A297 RMK A01 T02020006  RH  027%=      5-min Rain = 0
KGGS 182210Z 29019G28KT 20/01 A297 RMK A01 T01970009  RH  029%=      5-min Rain = 0
KGGS 182215Z 28020G27KT 19/02 A297 RMK A01 T01890016  RH  032%=      5-min Rain = 0
KGGS 182220Z 29017G23KT 19/02 A297 RMK A01 T01870018  RH  033%=      5-min Rain = 0
KGGS 182225Z 29016G21KT 19/02 A297 RMK A01 T01860018  RH  033%=      5-min Rain = 0
KGGS 182230Z 29014G19KT 19/02 A297 RMK A01 T01850017  RH  033%=      5-min Rain = 0
KGGS 182235Z 28015G20KT 19/02 A297 RMK A01 T01860016  RH  033%=      5-min Rain = 0
KGGS 182240Z 29015G23KT 19/02 A297 RMK A01 T01870015  RH  032%=      5-min Rain = 0
KGGS 182245Z 29013G18KT 19/01 A297 RMK A01 T01870014  RH  032%=      5-min Rain = 0
KGGS 182250Z 28015G20KT 19/01 A297 RMK A01 T01870011  RH  031%=      5-min Rain = 0
KGGS 182255Z 28017G26KT 19/01 A2971 RMK A01 T01870008  RH  030%=      5-min Rain = 0
KGGS 182300Z 29017G23KT 19/01 A2971 RMK A01 T01850007  RH  031%=      5-min Rain = 0
KGGS 182305Z 28020G26KT 18/01 A2972 RMK A01 T01830008  RH  031%=      5-min Rain = 0
KGGS 182310Z 28019G29KT 18/01 A2972 RMK A01 T01810005  RH  031%=      5-min Rain = 0
KGGS 182315Z 28017G22KT 18/00 A2972 RMK A01 T01790004  RH  031%=      5-min Rain = 0
KGGS 182320Z 28016G22KT 18/00 A2972 RMK A01 T01770004  RH  031%=      5-min Rain = 0
KGGS 182325Z 28019G27KT 18/00 A2972 RMK A01 T01770002  RH  031%=      5-min Rain = 0
KGGS 182330Z 28019G27KT 18/M00 A2972 RMK A01 T01761003  RH  030%=      5-min Rain = 0
KGGS 182335Z 28019G28KT 18/M01 A2972 RMK A01 T01751009  RH  029%=      5-min Rain = 0
KGGS 182340Z 28021G33KT 17/M02 A2972 RMK A01 T01721017  RH  028%=      5-min Rain = 0
KGGS 182345Z 28018G27KT 17/M02 A2972 RMK A01 T01701019  RH  028%=      5-min Rain = 0
KGGS 182350Z 28021G37KT 17/M01 A2973 RMK A01 T01691014  RH  029%=      5-min Rain = 0
KGGS 182355Z 28023G41KT 15/02 A2974 RMK A01 T01470020  RH  043%=      5-min Rain = 0
KGGS 190000Z 28019G27KT 15/01 A2974 RMK A01 T01530007  RH  038%=      5-min Rain = 0
KGGS 190005Z 28020G26KT 16/M01 A2973 RMK A01 T01591005  RH  033%=      5-min Rain = 0
KGGS 190010Z 28020G29KT 16/M02 A2974 RMK A01 T01631023  RH  028%=      5-min Rain = 0
KGGS 190015Z 28021G27KT 16/M03 A2975 RMK A01 T01641028  RH  027%=      5-min Rain = 0
KGGS 190020Z 28016G23KT 16/M02 A2975 RMK A01 T01591018  RH  030%=      5-min Rain = 0
KGGS 190025Z 26014G19KT 15/M02 A2974 RMK A01 T01541017  RH  031%=      5-min Rain = 0
KGGS 190030Z 26015G23KT 16/M02 A2975 RMK A01 T01551021  RH  030%=      5-min Rain = 0
KGGS 190035Z 27017G24KT 16/M03 A2975 RMK A01 T01561029  RH  028%=      5-min Rain = 0
KGGS 190040Z 28022G29KT 16/M05 A2974 RMK A01 T01601049  RH  023%=      5-min Rain = 0
KGGS 190045Z 27016G23KT 16/M05 A2975 RMK A01 T01591048  RH  024%=      5-min Rain = 0
KGGS 190050Z 26018G25KT 16/M04 A2975 RMK A01 T01561043  RH  025%=      5-min Rain = 0
KGGS 190055Z 27017G26KT 16/M05 A2975 RMK A01 T01561045  RH  025%=      5-min Rain = 0
KGGS 190100Z 28018G25KT 16/M05 A2976 RMK A01 T01551048  RH  024%=      5-min Rain = 0
KGGS 190105Z 29019G28KT 16/M05 A2974 RMK A01 T01551054  RH  023%=      5-min Rain = 0
KGGS 190110Z 28017G25KT 15/M05 A2974 RMK A01 T01511053  RH  024%=      5-min Rain = 0
KGGS 190115Z 28018G24KT 15/M05 A2975 RMK A01 T01491052  RH  025%=      5-min Rain = 0
KGGS 190120Z 27018G24KT 15/M05 A2974 RMK A01 T01501052  RH  024%=      5-min Rain = 0
KGGS 190125Z 27016G23KT 15/M05 A2975 RMK A01 T01461051  RH  025%=      5-min Rain = 0
KGGS 190130Z 27014G20KT 14/M05 A2975 RMK A01 T01441049  RH  026%=      5-min Rain = 0
KGGS 190135Z 27016G24KT 14/M05 A2976 RMK A01 T01441049  RH  026%=      5-min Rain = 0
KGGS 190140Z 27014G21KT 14/M05 A2975 RMK A01 T01421049  RH  026%=      5-min Rain = 0
KGGS 190145Z 27017G26KT 14/M05 A2975 RMK A01 T01411051  RH  026%=      5-min Rain = 0
KGGS 190150Z 27017G25KT 14/M05 A2975 RMK A01 T01411051  RH  026%=      5-min Rain = 0
KGGS 190155Z 26016G22KT 14/M05 A2976 RMK A01 T01401050  RH  026%=      5-min Rain = 0
KGGS 190200Z 26017G22KT 14/M05 A2977 RMK A01 T01371049  RH  027%=      5-min Rain = 0
KGGS 190205Z 26016G24KT 14/M05 A2978 RMK A01 T01361049  RH  027%=      5-min Rain = 0
KGGS 190210Z 28022G31KT 14/M05 A2979 RMK A01 T01401053  RH  026%=      5-min Rain = 0
KGGS 190215Z 30021G30KT 14/M05 A298 RMK A01 T01401046  RH  027%=      5-min Rain = 0
KGGS 190220Z 31028G43KT 14/M02 A298 RMK A01 T01351015  RH  036%=      5-min Rain = 0
KGGS 190225Z 32027G39KT 13/M01 A298 RMK A01 T01301007  RH  039%=      5-min Rain = 0
KGGS 190230Z 32027G40KT 13/M00 A2981 RMK A01 T01251003  RH  042%=      5-min Rain = 0
KGGS 190235Z 31027G36KT 12/00 A2981 RMK A01 T01190002  RH  045%=      5-min Rain = 0
KGGS 190240Z 32024G29KT 12/00 A2981 RMK A01 T01150003  RH  046%=      5-min Rain = 0
KGGS 190245Z 32023G33KT 11/00 A2981 RMK A01 T01140002  RH  047%=      5-min Rain = 0
KGGS 190250Z 33018G25KT 11/M00 A2982 RMK A01 T01091001  RH  047%=      5-min Rain = 0
KGGS 190255Z 33019G26KT 11/M01 A2982 RMK A01 T01051005  RH  047%=      5-min Rain = 0
KGGS 190300Z 34019G25KT 10/M01 A2982 RMK A01 T01031005  RH  048%=      5-min Rain = 0
KGGS 190305Z 33020G27KT 10/M01 A2983 RMK A01 T01011005  RH  048%=      5-min Rain = 0
KGGS 190310Z 33022G27KT 10/M00 A2983 RMK A01 T01001004  RH  049%=      5-min Rain = 0
KGGS 190315Z 33021G28KT 10/M00 A2984 RMK A01 T00981003  RH  050%=      5-min Rain = 0
KGGS 190320Z 33021G28KT 10/M00 A2985 RMK A01 T00951002  RH  051%=      5-min Rain = 0
KGGS 190325Z 33023G31KT 09/00 A2986 RMK A01 T009200-0  RH  053%=      5-min Rain = 0
KGGS 190330Z 33021G29KT 09/00 A2987 RMK A01 T00900001  RH  055%=      5-min Rain = 0
KGGS 190335Z 34022G29KT 09/00 A2988 RMK A01 T00880001  RH  055%=      5-min Rain = 0
KGGS 190340Z 33020G27KT 09/00 A2988 RMK A01 T008600-0  RH  055%=      5-min Rain = 0
KGGS 190345Z 33016G22KT 09/00 A2989 RMK A01 T00850001  RH  056%=      5-min Rain = 0
KGGS 190350Z 33019G27KT 09/00 A2989 RMK A01 T00860002  RH  056%=      5-min Rain = 0
KGGS 190355Z 33018G25KT 09/00 A299 RMK A01 T00870003  RH  056%=      5-min Rain = 0
KGGS 190400Z 33023G34KT 09/00 A299 RMK A01 T00860004  RH  057%=      5-min Rain = 0
KGGS 190405Z 33028G37KT 08/00 A2991 RMK A01 T00810002  RH  058%=      5-min Rain = 0
KGGS 190410Z 33022G33KT 08/00 A2992 RMK A01 T00790003  RH  059%=      5-min Rain = 0
KGGS 190415Z 33024G37KT 08/M00 A2993 RMK A01 T00771002  RH  058%=      5-min Rain = 0
KGGS 190420Z 34025G34KT 07/M01 A2993 RMK A01 T00701012  RH  057%=      5-min Rain = 0
KGGS 190425Z 34026G34KT 07/M01 A2994 RMK A01 T00651011  RH  059%=      5-min Rain = 0
KGGS 190430Z 34021G29KT 06/M01 A2994 RMK A01 T00621011  RH  060%=      5-min Rain = 0
KGGS 190435Z 33018G26KT 06/M01 A2995 RMK A01 T00601011  RH  061%=      5-min Rain = 0
KGGS 190440Z 33021G31KT 06/M01 A2996 RMK A01 T00601009  RH  062%=      5-min Rain = 0
KGGS 190445Z 33019G27KT 06/M01 A2996 RMK A01 T00581011  RH  062%=      5-min Rain = 0
KGGS 190450Z 33021G29KT 06/M01 A2997 RMK A01 T00561012  RH  062%=      5-min Rain = 0
KGGS 190455Z 34021G30KT 06/M02 A2998 RMK A01 T00551018  RH  060%=      5-min Rain = 0
KGGS 190500Z 34028G35KT 05/M03 A2998 RMK A01 T00541025  RH  057%=      5-min Rain = 0
KGGS 190505Z 34025G36KT 05/M03 A2999 RMK A01 T00531028  RH  056%=      5-min Rain = 0
KGGS 190510Z 34022G34KT 05/M03 A2999 RMK A01 T00511031  RH  056%=      5-min Rain = 0
KGGS 190515Z 34020G27KT 05/M03 A30 RMK A01 T00501031  RH  056%=      5-min Rain = 0
KGGS 190520Z 33023G31KT 05/M03 A30 RMK A01 T00501029  RH  057%=      5-min Rain = 0
KGGS 190525Z 34022G29KT 05/M03 A3001 RMK A01 T00501027  RH  058%=      5-min Rain = 0
KGGS 190530Z 34024G31KT 05/M03 A3001 RMK A01 T00501025  RH  059%=      5-min Rain = 0
KGGS 190535Z 34020G27KT 05/M02 A3002 RMK A01 T00501024  RH  059%=      5-min Rain = 0
KGGS 190540Z 34021G29KT 05/M02 A3002 RMK A01 T00511023  RH  059%=      5-min Rain = 0
KGGS 190545Z 33024G36KT 05/M03 A3002 RMK A01 T00511026  RH  058%=      5-min Rain = 0
KGGS 190550Z 33025G34KT 05/M03 A3002 RMK A01 T00481033  RH  056%=      5-min Rain = 0
KGGS 190555Z 33024G31KT 05/M03 A3002 RMK A01 T00461034  RH  056%=      5-min Rain = 0

Page generated in 0.0091 seconds.